sensor_id;sensor_type;location;lat;lon;timestamp;P1;durP1;ratioP1;P2;durP2;ratioP2
26277;SDS011;14000;52.056;8.510;2023-03-14T00:02:20;9.27;;;2.23;;
26277;SDS011;14000;52.056;8.510;2023-03-14T00:04:45;9.67;;;2.27;;
26277;SDS011;14000;52.056;8.510;2023-03-14T00:07:11;15.03;;;2.43;;
26277;SDS011;14000;52.056;8.510;2023-03-14T00:09:38;9.27;;;2.57;;
26277;SDS011;14000;52.056;8.510;2023-03-14T00:12:04;9.47;;;2.67;;
26277;SDS011;14000;52.056;8.510;2023-03-14T00:14:31;9.30;;;2.30;;
26277;SDS011;14000;52.056;8.510;2023-03-14T00:16:57;9.70;;;2.43;;
26277;SDS011;14000;52.056;8.510;2023-03-14T00:19:23;9.97;;;2.67;;
26277;SDS011;14000;52.056;8.510;2023-03-14T00:21:48;12.03;;;2.60;;
26277;SDS011;14000;52.056;8.510;2023-03-14T00:24:14;11.30;;;2.47;;
26277;SDS011;14000;52.056;8.510;2023-03-14T00:26:40;10.33;;;1.93;;
26277;SDS011;14000;52.056;8.510;2023-03-14T00:29:05;11.13;;;2.30;;
26277;SDS011;14000;52.056;8.510;2023-03-14T00:31:31;9.03;;;2.40;;
26277;SDS011;14000;52.056;8.510;2023-03-14T00:33:57;12.90;;;2.23;;
26277;SDS011;14000;52.056;8.510;2023-03-14T00:36:22;9.80;;;2.30;;
26277;SDS011;14000;52.056;8.510;2023-03-14T00:38:49;13.07;;;2.27;;
26277;SDS011;14000;52.056;8.510;2023-03-14T00:41:17;8.60;;;2.00;;
26277;SDS011;14000;52.056;8.510;2023-03-14T00:43:44;10.93;;;2.57;;
26277;SDS011;14000;52.056;8.510;2023-03-14T00:46:10;10.13;;;2.53;;
26277;SDS011;14000;52.056;8.510;2023-03-14T00:48:37;10.10;;;2.73;;
26277;SDS011;14000;52.056;8.510;2023-03-14T00:51:04;11.07;;;3.10;;
26277;SDS011;14000;52.056;8.510;2023-03-14T00:53:30;11.40;;;3.00;;
26277;SDS011;14000;52.056;8.510;2023-03-14T00:56:02;13.97;;;2.83;;
26277;SDS011;14000;52.056;8.510;2023-03-14T00:58:28;14.83;;;2.93;;
26277;SDS011;14000;52.056;8.510;2023-03-14T01:00:54;13.07;;;2.57;;
26277;SDS011;14000;52.056;8.510;2023-03-14T01:03:20;11.47;;;2.13;;
26277;SDS011;14000;52.056;8.510;2023-03-14T01:05:45;12.37;;;2.40;;
26277;SDS011;14000;52.056;8.510;2023-03-14T01:08:11;9.70;;;2.37;;
26277;SDS011;14000;52.056;8.510;2023-03-14T01:10:39;8.60;;;2.00;;
26277;SDS011;14000;52.056;8.510;2023-03-14T01:13:06;13.20;;;2.47;;
26277;SDS011;14000;52.056;8.510;2023-03-14T01:15:32;9.87;;;2.20;;
26277;SDS011;14000;52.056;8.510;2023-03-14T01:17:59;10.77;;;2.77;;
26277;SDS011;14000;52.056;8.510;2023-03-14T01:20:24;11.13;;;2.40;;
26277;SDS011;14000;52.056;8.510;2023-03-14T01:22:50;12.07;;;2.30;;
26277;SDS011;14000;52.056;8.510;2023-03-14T01:25:16;11.27;;;2.20;;
26277;SDS011;14000;52.056;8.510;2023-03-14T01:27:43;13.27;;;2.20;;
26277;SDS011;14000;52.056;8.510;2023-03-14T01:30:09;14.20;;;2.40;;
26277;SDS011;14000;52.056;8.510;2023-03-14T01:32:36;9.90;;;1.97;;
26277;SDS011;14000;52.056;8.510;2023-03-14T01:35:02;10.57;;;2.20;;
26277;SDS011;14000;52.056;8.510;2023-03-14T01:37:28;12.83;;;2.30;;
26277;SDS011;14000;52.056;8.510;2023-03-14T01:39:54;11.40;;;2.60;;
26277;SDS011;14000;52.056;8.510;2023-03-14T01:42:19;14.03;;;2.50;;
26277;SDS011;14000;52.056;8.510;2023-03-14T01:44:49;13.70;;;2.30;;
26277;SDS011;14000;52.056;8.510;2023-03-14T01:47:22;13.53;;;2.27;;
26277;SDS011;14000;52.056;8.510;2023-03-14T01:49:53;14.90;;;2.50;;
26277;SDS011;14000;52.056;8.510;2023-03-14T01:52:25;12.53;;;2.60;;
26277;SDS011;14000;52.056;8.510;2023-03-14T01:55:01;13.70;;;2.70;;
26277;SDS011;14000;52.056;8.510;2023-03-14T01:57:41;12.87;;;2.20;;
26277;SDS011;14000;52.056;8.510;2023-03-14T02:00:11;14.43;;;2.30;;
26277;SDS011;14000;52.056;8.510;2023-03-14T02:02:40;10.57;;;2.20;;
26277;SDS011;14000;52.056;8.510;2023-03-14T02:05:08;9.90;;;2.20;;
26277;SDS011;14000;52.056;8.510;2023-03-14T02:07:37;12.40;;;2.67;;
26277;SDS011;14000;52.056;8.510;2023-03-14T02:10:16;11.00;;;2.57;;
26277;SDS011;14000;52.056;8.510;2023-03-14T02:12:45;12.07;;;2.93;;
26277;SDS011;14000;52.056;8.510;2023-03-14T02:15:12;11.00;;;2.97;;
26277;SDS011;14000;52.056;8.510;2023-03-14T02:17:38;12.63;;;2.70;;
26277;SDS011;14000;52.056;8.510;2023-03-14T02:23:15;11.03;;;2.40;;
26277;SDS011;14000;52.056;8.510;2023-03-14T02:25:51;13.57;;;2.83;;
26277;SDS011;14000;52.056;8.510;2023-03-14T02:28:44;13.30;;;2.40;;
26277;SDS011;14000;52.056;8.510;2023-03-14T02:31:10;17.27;;;2.43;;
26277;SDS011;14000;52.056;8.510;2023-03-14T02:33:37;7.00;;;1.40;;
26277;SDS011;14000;52.056;8.510;2023-03-14T02:36:07;9.03;;;1.53;;
26277;SDS011;14000;52.056;8.510;2023-03-14T02:41:25;5.40;;;1.10;;
26277;SDS011;14000;52.056;8.510;2023-03-14T02:43:51;11.77;;;1.37;;
26277;SDS011;14000;52.056;8.510;2023-03-14T02:46:18;9.93;;;1.47;;
26277;SDS011;14000;52.056;8.510;2023-03-14T02:48:51;7.70;;;1.50;;
26277;SDS011;14000;52.056;8.510;2023-03-14T02:51:21;6.50;;;1.10;;
26277;SDS011;14000;52.056;8.510;2023-03-14T02:53:48;5.87;;;0.97;;
26277;SDS011;14000;52.056;8.510;2023-03-14T02:56:14;6.23;;;1.20;;
26277;SDS011;14000;52.056;8.510;2023-03-14T02:58:40;6.63;;;1.20;;
26277;SDS011;14000;52.056;8.510;2023-03-14T03:01:05;5.63;;;1.10;;
26277;SDS011;14000;52.056;8.510;2023-03-14T03:03:31;4.87;;;0.97;;
26277;SDS011;14000;52.056;8.510;2023-03-14T03:05:57;6.87;;;1.20;;
26277;SDS011;14000;52.056;8.510;2023-03-14T03:08:23;7.63;;;1.30;;
26277;SDS011;14000;52.056;8.510;2023-03-14T03:10:51;8.80;;;1.40;;
26277;SDS011;14000;52.056;8.510;2023-03-14T03:13:16;7.07;;;1.40;;
26277;SDS011;14000;52.056;8.510;2023-03-14T03:15:43;13.63;;;1.67;;
26277;SDS011;14000;52.056;8.510;2023-03-14T03:18:09;9.93;;;1.73;;
26277;SDS011;14000;52.056;8.510;2023-03-14T03:20:34;12.43;;;1.63;;
26277;SDS011;14000;52.056;8.510;2023-03-14T03:23:00;11.53;;;1.80;;
26277;SDS011;14000;52.056;8.510;2023-03-14T03:25:26;6.33;;;1.30;;
26277;SDS011;14000;52.056;8.510;2023-03-14T03:27:52;9.77;;;1.77;;
26277;SDS011;14000;52.056;8.510;2023-03-14T03:30:18;12.60;;;1.70;;
26277;SDS011;14000;52.056;8.510;2023-03-14T03:32:44;11.27;;;2.10;;
26277;SDS011;14000;52.056;8.510;2023-03-14T03:35:10;8.50;;;1.30;;
26277;SDS011;14000;52.056;8.510;2023-03-14T03:37:36;10.10;;;1.40;;
26277;SDS011;14000;52.056;8.510;2023-03-14T03:40:02;11.93;;;1.80;;
26277;SDS011;14000;52.056;8.510;2023-03-14T03:42:31;8.73;;;1.70;;
26277;SDS011;14000;52.056;8.510;2023-03-14T03:44:57;8.93;;;1.70;;
26277;SDS011;14000;52.056;8.510;2023-03-14T03:47:22;9.10;;;1.50;;
26277;SDS011;14000;52.056;8.510;2023-03-14T03:49:48;10.30;;;1.40;;
26277;SDS011;14000;52.056;8.510;2023-03-14T03:52:14;8.87;;;1.53;;
26277;SDS011;14000;52.056;8.510;2023-03-14T03:54:39;8.53;;;1.40;;
26277;SDS011;14000;52.056;8.510;2023-03-14T03:57:05;7.43;;;1.33;;
26277;SDS011;14000;52.056;8.510;2023-03-14T03:59:30;7.67;;;1.23;;
26277;SDS011;14000;52.056;8.510;2023-03-14T04:01:56;12.87;;;1.53;;
26277;SDS011;14000;52.056;8.510;2023-03-14T04:04:22;9.77;;;1.30;;
26277;SDS011;14000;52.056;8.510;2023-03-14T04:06:47;6.53;;;1.17;;
26277;SDS011;14000;52.056;8.510;2023-03-14T04:09:13;9.87;;;1.40;;
26277;SDS011;14000;52.056;8.510;2023-03-14T04:11:39;8.47;;;1.40;;
26277;SDS011;14000;52.056;8.510;2023-03-14T04:14:06;10.50;;;1.50;;
26277;SDS011;14000;52.056;8.510;2023-03-14T04:16:31;8.77;;;1.50;;
26277;SDS011;14000;52.056;8.510;2023-03-14T04:18:57;10.67;;;1.63;;
26277;SDS011;14000;52.056;8.510;2023-03-14T04:21:23;10.37;;;1.53;;
26277;SDS011;14000;52.056;8.510;2023-03-14T04:23:49;12.60;;;2.07;;
26277;SDS011;14000;52.056;8.510;2023-03-14T04:26:14;12.17;;;1.97;;
26277;SDS011;14000;52.056;8.510;2023-03-14T04:28:40;12.53;;;1.70;;
26277;SDS011;14000;52.056;8.510;2023-03-14T04:31:07;9.77;;;1.63;;
26277;SDS011;14000;52.056;8.510;2023-03-14T04:33:34;21.17;;;2.33;;
26277;SDS011;14000;52.056;8.510;2023-03-14T04:36:01;10.77;;;1.87;;
26277;SDS011;14000;52.056;8.510;2023-03-14T04:38:26;11.77;;;1.93;;
26277;SDS011;14000;52.056;8.510;2023-03-14T04:40:52;14.33;;;2.13;;
26277;SDS011;14000;52.056;8.510;2023-03-14T04:43:18;13.90;;;2.20;;
26277;SDS011;14000;52.056;8.510;2023-03-14T04:45:43;11.93;;;2.27;;
26277;SDS011;14000;52.056;8.510;2023-03-14T04:48:09;12.30;;;2.10;;
26277;SDS011;14000;52.056;8.510;2023-03-14T04:50:35;12.60;;;2.37;;
26277;SDS011;14000;52.056;8.510;2023-03-14T04:53:00;12.27;;;2.00;;
26277;SDS011;14000;52.056;8.510;2023-03-14T04:55:26;11.10;;;2.43;;
26277;SDS011;14000;52.056;8.510;2023-03-14T04:57:52;16.77;;;2.10;;
26277;SDS011;14000;52.056;8.510;2023-03-14T05:00:17;13.80;;;3.33;;
26277;SDS011;14000;52.056;8.510;2023-03-14T05:02:43;10.37;;;2.30;;
26277;SDS011;14000;52.056;8.510;2023-03-14T05:05:09;13.87;;;2.10;;
26277;SDS011;14000;52.056;8.510;2023-03-14T05:07:35;13.67;;;2.33;;
26277;SDS011;14000;52.056;8.510;2023-03-14T05:10:00;11.93;;;2.07;;
26277;SDS011;14000;52.056;8.510;2023-03-14T05:12:26;15.00;;;2.00;;
26277;SDS011;14000;52.056;8.510;2023-03-14T05:14:52;17.53;;;2.30;;
26277;SDS011;14000;52.056;8.510;2023-03-14T05:17:17;16.27;;;2.10;;
26277;SDS011;14000;52.056;8.510;2023-03-14T05:19:43;14.30;;;2.03;;
26277;SDS011;14000;52.056;8.510;2023-03-14T05:22:09;10.50;;;1.90;;
26277;SDS011;14000;52.056;8.510;2023-03-14T05:24:36;15.10;;;2.17;;
26277;SDS011;14000;52.056;8.510;2023-03-14T05:27:02;12.17;;;2.00;;
26277;SDS011;14000;52.056;8.510;2023-03-14T05:29:29;13.17;;;2.33;;
26277;SDS011;14000;52.056;8.510;2023-03-14T05:31:54;13.30;;;2.00;;
26277;SDS011;14000;52.056;8.510;2023-03-14T05:34:20;11.13;;;2.07;;
26277;SDS011;14000;52.056;8.510;2023-03-14T05:36:46;12.33;;;1.93;;
26277;SDS011;14000;52.056;8.510;2023-03-14T05:39:11;11.83;;;1.90;;
26277;SDS011;14000;52.056;8.510;2023-03-14T05:41:37;10.27;;;2.03;;
26277;SDS011;14000;52.056;8.510;2023-03-14T05:44:03;12.40;;;2.60;;
26277;SDS011;14000;52.056;8.510;2023-03-14T05:46:28;12.50;;;1.90;;
26277;SDS011;14000;52.056;8.510;2023-03-14T05:48:55;14.10;;;2.20;;
26277;SDS011;14000;52.056;8.510;2023-03-14T05:51:22;14.70;;;2.53;;
26277;SDS011;14000;52.056;8.510;2023-03-14T05:53:48;11.97;;;2.00;;
26277;SDS011;14000;52.056;8.510;2023-03-14T05:56:14;10.47;;;2.10;;
26277;SDS011;14000;52.056;8.510;2023-03-14T05:58:39;7.43;;;1.60;;
26277;SDS011;14000;52.056;8.510;2023-03-14T06:01:05;8.83;;;1.53;;
26277;SDS011;14000;52.056;8.510;2023-03-14T06:03:32;11.43;;;1.60;;
26277;SDS011;14000;52.056;8.510;2023-03-14T06:05:57;6.77;;;1.30;;
26277;SDS011;14000;52.056;8.510;2023-03-14T06:08:23;7.93;;;1.60;;
26277;SDS011;14000;52.056;8.510;2023-03-14T06:10:49;8.27;;;1.60;;
26277;SDS011;14000;52.056;8.510;2023-03-14T06:13:15;5.97;;;1.23;;
26277;SDS011;14000;52.056;8.510;2023-03-14T06:15:41;8.50;;;1.23;;
26277;SDS011;14000;52.056;8.510;2023-03-14T06:18:07;7.97;;;1.40;;
26277;SDS011;14000;52.056;8.510;2023-03-14T06:20:33;8.20;;;1.30;;
26277;SDS011;14000;52.056;8.510;2023-03-14T06:23:01;7.70;;;1.20;;
26277;SDS011;14000;52.056;8.510;2023-03-14T06:25:26;6.83;;;1.23;;
26277;SDS011;14000;52.056;8.510;2023-03-14T06:27:52;6.60;;;1.20;;
26277;SDS011;14000;52.056;8.510;2023-03-14T06:30:18;6.73;;;1.10;;
26277;SDS011;14000;52.056;8.510;2023-03-14T06:32:43;6.77;;;1.20;;
26277;SDS011;14000;52.056;8.510;2023-03-14T06:35:09;6.27;;;1.13;;
26277;SDS011;14000;52.056;8.510;2023-03-14T06:37:34;3.90;;;1.10;;
26277;SDS011;14000;52.056;8.510;2023-03-14T06:40:00;3.67;;;1.00;;
26277;SDS011;14000;52.056;8.510;2023-03-14T06:42:26;3.50;;;1.00;;
26277;SDS011;14000;52.056;8.510;2023-03-14T06:44:51;3.90;;;1.00;;
26277;SDS011;14000;52.056;8.510;2023-03-14T06:47:17;3.33;;;1.00;;
26277;SDS011;14000;52.056;8.510;2023-03-14T06:49:42;4.77;;;1.20;;
26277;SDS011;14000;52.056;8.510;2023-03-14T06:52:08;4.23;;;1.10;;
26277;SDS011;14000;52.056;8.510;2023-03-14T06:54:34;5.17;;;1.27;;
26277;SDS011;14000;52.056;8.510;2023-03-14T06:56:59;3.83;;;1.27;;
26277;SDS011;14000;52.056;8.510;2023-03-14T06:59:25;5.23;;;1.00;;
26277;SDS011;14000;52.056;8.510;2023-03-14T07:01:50;4.73;;;1.20;;
26277;SDS011;14000;52.056;8.510;2023-03-14T07:04:16;6.63;;;1.30;;
26277;SDS011;14000;52.056;8.510;2023-03-14T07:06:42;3.83;;;1.30;;
26277;SDS011;14000;52.056;8.510;2023-03-14T07:09:12;7.93;;;1.57;;
26277;SDS011;14000;52.056;8.510;2023-03-14T07:11:38;6.47;;;1.40;;
26277;SDS011;14000;52.056;8.510;2023-03-14T07:14:04;8.83;;;2.17;;
26277;SDS011;14000;52.056;8.510;2023-03-14T07:16:30;4.07;;;1.20;;
26277;SDS011;14000;52.056;8.510;2023-03-14T07:18:58;7.03;;;1.40;;
26277;SDS011;14000;52.056;8.510;2023-03-14T07:21:24;7.10;;;1.27;;
26277;SDS011;14000;52.056;8.510;2023-03-14T07:23:50;5.77;;;1.37;;
26277;SDS011;14000;52.056;8.510;2023-03-14T07:26:16;6.63;;;1.30;;
26277;SDS011;14000;52.056;8.510;2023-03-14T07:28:41;10.27;;;1.83;;
26277;SDS011;14000;52.056;8.510;2023-03-14T07:31:07;4.93;;;1.50;;
26277;SDS011;14000;52.056;8.510;2023-03-14T07:33:33;9.93;;;3.23;;
26277;SDS011;14000;52.056;8.510;2023-03-14T07:35:59;10.17;;;1.97;;
26277;SDS011;14000;52.056;8.510;2023-03-14T07:38:24;6.40;;;2.00;;
26277;SDS011;14000;52.056;8.510;2023-03-14T07:40:52;6.50;;;2.30;;
26277;SDS011;14000;52.056;8.510;2023-03-14T07:43:26;8.57;;;3.13;;
26277;SDS011;14000;52.056;8.510;2023-03-14T07:45:52;9.77;;;3.70;;
26277;SDS011;14000;52.056;8.510;2023-03-14T07:48:18;11.03;;;4.10;;
26277;SDS011;14000;52.056;8.510;2023-03-14T07:50:47;10.23;;;3.47;;
26277;SDS011;14000;52.056;8.510;2023-03-14T07:53:14;8.40;;;3.43;;
26277;SDS011;14000;52.056;8.510;2023-03-14T07:55:40;8.23;;;3.70;;
26277;SDS011;14000;52.056;8.510;2023-03-14T07:58:05;9.93;;;3.90;;
26277;SDS011;14000;52.056;8.510;2023-03-14T08:00:31;8.50;;;3.83;;
26277;SDS011;14000;52.056;8.510;2023-03-14T08:02:57;8.23;;;3.33;;
26277;SDS011;14000;52.056;8.510;2023-03-14T08:05:23;9.67;;;3.93;;
26277;SDS011;14000;52.056;8.510;2023-03-14T08:07:49;13.60;;;5.13;;
26277;SDS011;14000;52.056;8.510;2023-03-14T08:10:15;6.87;;;3.13;;
26277;SDS011;14000;52.056;8.510;2023-03-14T08:12:50;8.20;;;3.20;;
26277;SDS011;14000;52.056;8.510;2023-03-14T08:15:18;8.47;;;3.00;;
26277;SDS011;14000;52.056;8.510;2023-03-14T08:17:44;9.53;;;2.77;;
26277;SDS011;14000;52.056;8.510;2023-03-14T08:20:10;10.07;;;3.13;;
26277;SDS011;14000;52.056;8.510;2023-03-14T08:22:37;9.60;;;3.00;;
26277;SDS011;14000;52.056;8.510;2023-03-14T08:25:03;9.23;;;3.70;;
26277;SDS011;14000;52.056;8.510;2023-03-14T08:27:29;9.60;;;3.73;;
26277;SDS011;14000;52.056;8.510;2023-03-14T08:29:55;9.57;;;4.23;;
26277;SDS011;14000;52.056;8.510;2023-03-14T08:32:20;10.97;;;4.80;;
26277;SDS011;14000;52.056;8.510;2023-03-14T08:34:48;13.03;;;5.07;;
26277;SDS011;14000;52.056;8.510;2023-03-14T08:37:14;11.73;;;5.27;;
26277;SDS011;14000;52.056;8.510;2023-03-14T08:39:40;10.53;;;5.67;;
26277;SDS011;14000;52.056;8.510;2023-03-14T08:42:05;10.93;;;4.73;;
26277;SDS011;14000;52.056;8.510;2023-03-14T08:44:31;16.27;;;6.43;;
26277;SDS011;14000;52.056;8.510;2023-03-14T08:46:57;10.90;;;5.27;;
26277;SDS011;14000;52.056;8.510;2023-03-14T08:49:23;9.70;;;4.80;;
26277;SDS011;14000;52.056;8.510;2023-03-14T08:51:49;9.57;;;5.23;;
26277;SDS011;14000;52.056;8.510;2023-03-14T08:54:14;9.27;;;4.93;;
26277;SDS011;14000;52.056;8.510;2023-03-14T08:56:40;10.13;;;5.20;;
26277;SDS011;14000;52.056;8.510;2023-03-14T08:59:06;11.57;;;5.60;;
26277;SDS011;14000;52.056;8.510;2023-03-14T09:01:33;9.80;;;4.67;;
26277;SDS011;14000;52.056;8.510;2023-03-14T09:03:59;10.13;;;4.47;;
26277;SDS011;14000;52.056;8.510;2023-03-14T09:06:25;11.83;;;4.53;;
26277;SDS011;14000;52.056;8.510;2023-03-14T09:08:51;11.47;;;4.83;;
26277;SDS011;14000;52.056;8.510;2023-03-14T09:11:16;10.70;;;4.57;;
26277;SDS011;14000;52.056;8.510;2023-03-14T09:13:43;11.27;;;5.30;;
26277;SDS011;14000;52.056;8.510;2023-03-14T09:16:10;10.60;;;5.30;;
26277;SDS011;14000;52.056;8.510;2023-03-14T09:18:39;10.40;;;4.83;;
26277;SDS011;14000;52.056;8.510;2023-03-14T09:21:04;12.00;;;4.63;;
26277;SDS011;14000;52.056;8.510;2023-03-14T09:23:30;12.33;;;4.80;;
26277;SDS011;14000;52.056;8.510;2023-03-14T09:25:57;10.07;;;4.60;;
26277;SDS011;14000;52.056;8.510;2023-03-14T09:28:23;10.63;;;4.57;;
26277;SDS011;14000;52.056;8.510;2023-03-14T09:30:50;10.90;;;5.30;;
26277;SDS011;14000;52.056;8.510;2023-03-14T09:33:16;11.90;;;5.43;;
26277;SDS011;14000;52.056;8.510;2023-03-14T09:35:42;11.47;;;6.00;;
26277;SDS011;14000;52.056;8.510;2023-03-14T09:38:08;11.07;;;5.67;;
26277;SDS011;14000;52.056;8.510;2023-03-14T09:40:34;10.80;;;5.00;;
26277;SDS011;14000;52.056;8.510;2023-03-14T09:43:01;9.50;;;4.67;;
26277;SDS011;14000;52.056;8.510;2023-03-14T09:45:28;10.13;;;5.50;;
26277;SDS011;14000;52.056;8.510;2023-03-14T09:48:01;9.10;;;5.00;;
26277;SDS011;14000;52.056;8.510;2023-03-14T09:50:31;9.50;;;5.10;;
26277;SDS011;14000;52.056;8.510;2023-03-14T09:53:04;11.20;;;5.13;;
26277;SDS011;14000;52.056;8.510;2023-03-14T09:55:37;8.53;;;4.17;;
26277;SDS011;14000;52.056;8.510;2023-03-14T09:58:05;12.03;;;4.73;;
26277;SDS011;14000;52.056;8.510;2023-03-14T10:00:36;8.13;;;3.50;;
26277;SDS011;14000;52.056;8.510;2023-03-14T10:05:37;8.23;;;3.73;;
26277;SDS011;14000;52.056;8.510;2023-03-14T10:08:03;9.07;;;3.80;;
26277;SDS011;14000;52.056;8.510;2023-03-14T10:10:30;8.70;;;4.30;;
26277;SDS011;14000;52.056;8.510;2023-03-14T10:12:58;9.93;;;4.83;;
26277;SDS011;14000;52.056;8.510;2023-03-14T10:15:31;8.83;;;4.30;;
26277;SDS011;14000;52.056;8.510;2023-03-14T10:17:58;10.20;;;4.70;;
26277;SDS011;14000;52.056;8.510;2023-03-14T10:25:38;11.17;;;5.90;;
26277;SDS011;14000;52.056;8.510;2023-03-14T10:28:10;9.60;;;5.40;;
26277;SDS011;14000;52.056;8.510;2023-03-14T10:30:52;10.10;;;5.63;;
26277;SDS011;14000;52.056;8.510;2023-03-14T10:35:52;8.83;;;2.07;;
26277;SDS011;14000;52.056;8.510;2023-03-14T10:38:27;7.07;;;2.40;;
26277;SDS011;14000;52.056;8.510;2023-03-14T10:40:57;6.93;;;1.63;;
26277;SDS011;14000;52.056;8.510;2023-03-14T10:43:27;4.40;;;1.30;;
26277;SDS011;14000;52.056;8.510;2023-03-14T10:46:01;5.37;;;1.73;;
26277;SDS011;14000;52.056;8.510;2023-03-14T10:48:34;6.63;;;2.00;;
26277;SDS011;14000;52.056;8.510;2023-03-14T10:51:06;7.87;;;1.90;;
26277;SDS011;14000;52.056;8.510;2023-03-14T10:56:33;7.17;;;2.00;;
26277;SDS011;14000;52.056;8.510;2023-03-14T10:59:01;9.87;;;3.00;;
26277;SDS011;14000;52.056;8.510;2023-03-14T11:04:49;3.53;;;1.03;;
26277;SDS011;14000;52.056;8.510;2023-03-14T11:07:39;3.93;;;1.00;;
26277;SDS011;14000;52.056;8.510;2023-03-14T11:16:01;5.60;;;1.23;;
26277;SDS011;14000;52.056;8.510;2023-03-14T11:21:23;6.17;;;1.37;;
26277;SDS011;14000;52.056;8.510;2023-03-14T11:24:03;5.23;;;1.00;;
26277;SDS011;14000;52.056;8.510;2023-03-14T11:29:39;3.77;;;1.03;;
26277;SDS011;14000;52.056;8.510;2023-03-14T11:35:28;3.47;;;1.00;;
26277;SDS011;14000;52.056;8.510;2023-03-14T11:40:59;2.67;;;1.00;;
26277;SDS011;14000;52.056;8.510;2023-03-14T11:43:29;4.37;;;1.17;;
26277;SDS011;14000;52.056;8.510;2023-03-14T11:46:03;4.43;;;1.10;;
26277;SDS011;14000;52.056;8.510;2023-03-14T11:51:06;3.60;;;1.10;;
26277;SDS011;14000;52.056;8.510;2023-03-14T11:53:49;7.07;;;1.27;;
26277;SDS011;14000;52.056;8.510;2023-03-14T11:56:40;4.20;;;1.20;;
26277;SDS011;14000;52.056;8.510;2023-03-14T11:59:24;6.50;;;1.70;;
26277;SDS011;14000;52.056;8.510;2023-03-14T12:07:19;9.77;;;1.63;;
26277;SDS011;14000;52.056;8.510;2023-03-14T12:09:49;7.63;;;1.93;;
26277;SDS011;14000;52.056;8.510;2023-03-14T12:12:18;9.10;;;1.80;;
26277;SDS011;14000;52.056;8.510;2023-03-14T12:14:59;12.97;;;2.00;;
26277;SDS011;14000;52.056;8.510;2023-03-14T12:17:35;10.80;;;2.20;;
26277;SDS011;14000;52.056;8.510;2023-03-14T12:20:15;10.67;;;1.90;;
26277;SDS011;14000;52.056;8.510;2023-03-14T12:22:44;9.20;;;1.83;;
26277;SDS011;14000;52.056;8.510;2023-03-14T12:25:20;13.97;;;2.07;;
26277;SDS011;14000;52.056;8.510;2023-03-14T12:28:02;11.53;;;2.00;;
26277;SDS011;14000;52.056;8.510;2023-03-14T12:30:31;12.60;;;1.97;;
26277;SDS011;14000;52.056;8.510;2023-03-14T12:36:00;11.47;;;2.03;;
26277;SDS011;14000;52.056;8.510;2023-03-14T12:38:49;12.07;;;2.00;;
26277;SDS011;14000;52.056;8.510;2023-03-14T12:41:26;10.90;;;1.90;;
26277;SDS011;14000;52.056;8.510;2023-03-14T12:44:27;14.90;;;2.20;;
26277;SDS011;14000;52.056;8.510;2023-03-14T12:46:54;12.83;;;2.07;;
26277;SDS011;14000;52.056;8.510;2023-03-14T12:49:40;18.40;;;2.30;;
26277;SDS011;14000;52.056;8.510;2023-03-14T12:52:12;15.83;;;2.33;;
26277;SDS011;14000;52.056;8.510;2023-03-14T12:59:48;18.33;;;2.43;;
26277;SDS011;14000;52.056;8.510;2023-03-14T13:10:16;13.57;;;2.53;;
26277;SDS011;14000;52.056;8.510;2023-03-14T13:12:48;16.43;;;2.70;;
26277;SDS011;14000;52.056;8.510;2023-03-14T13:18:10;12.90;;;2.00;;
26277;SDS011;14000;52.056;8.510;2023-03-14T13:21:06;12.00;;;2.17;;
26277;SDS011;14000;52.056;8.510;2023-03-14T13:23:55;20.63;;;3.77;;
26277;SDS011;14000;52.056;8.510;2023-03-14T13:26:21;26.20;;;2.90;;
26277;SDS011;14000;52.056;8.510;2023-03-14T13:28:48;23.30;;;3.13;;
26277;SDS011;14000;52.056;8.510;2023-03-14T13:31:21;26.37;;;3.80;;
26277;SDS011;14000;52.056;8.510;2023-03-14T13:34:04;28.27;;;3.13;;
26277;SDS011;14000;52.056;8.510;2023-03-14T13:36:33;27.70;;;3.87;;
26277;SDS011;14000;52.056;8.510;2023-03-14T13:39:00;27.73;;;3.17;;
26277;SDS011;14000;52.056;8.510;2023-03-14T13:41:29;26.07;;;3.63;;
26277;SDS011;14000;52.056;8.510;2023-03-14T13:44:08;23.27;;;3.47;;
26277;SDS011;14000;52.056;8.510;2023-03-14T13:46:39;37.53;;;4.13;;
26277;SDS011;14000;52.056;8.510;2023-03-14T13:49:05;25.53;;;3.80;;
26277;SDS011;14000;52.056;8.510;2023-03-14T13:51:34;29.43;;;3.60;;
26277;SDS011;14000;52.056;8.510;2023-03-14T13:54:15;27.53;;;3.87;;
26277;SDS011;14000;52.056;8.510;2023-03-14T13:56:43;28.27;;;3.70;;
26277;SDS011;14000;52.056;8.510;2023-03-14T13:59:22;28.53;;;3.63;;
26277;SDS011;14000;52.056;8.510;2023-03-14T14:01:47;26.40;;;4.00;;
26277;SDS011;14000;52.056;8.510;2023-03-14T14:04:15;28.23;;;4.10;;
26277;SDS011;14000;52.056;8.510;2023-03-14T14:06:47;33.00;;;4.23;;
26277;SDS011;14000;52.056;8.510;2023-03-14T14:09:22;33.20;;;3.70;;
26277;SDS011;14000;52.056;8.510;2023-03-14T14:14:59;21.00;;;3.13;;
26277;SDS011;14000;52.056;8.510;2023-03-14T14:17:31;20.57;;;3.30;;
26277;SDS011;14000;52.056;8.510;2023-03-14T14:20:04;24.27;;;3.40;;
26277;SDS011;14000;52.056;8.510;2023-03-14T14:22:32;16.53;;;2.60;;
26277;SDS011;14000;52.056;8.510;2023-03-14T14:24:58;22.97;;;3.00;;
26277;SDS011;14000;52.056;8.510;2023-03-14T14:27:29;24.40;;;4.17;;
26277;SDS011;14000;52.056;8.510;2023-03-14T14:30:21;20.00;;;3.67;;
26277;SDS011;14000;52.056;8.510;2023-03-14T14:35:48;27.73;;;3.43;;
26277;SDS011;14000;52.056;8.510;2023-03-14T14:38:25;28.00;;;4.40;;
26277;SDS011;14000;52.056;8.510;2023-03-14T14:40:53;17.83;;;2.30;;
26277;SDS011;14000;52.056;8.510;2023-03-14T14:43:24;19.30;;;3.40;;
26277;SDS011;14000;52.056;8.510;2023-03-14T14:45:53;22.10;;;3.30;;
26277;SDS011;14000;52.056;8.510;2023-03-14T14:48:24;18.73;;;2.67;;
26277;SDS011;14000;52.056;8.510;2023-03-14T14:51:02;19.30;;;2.67;;
26277;SDS011;14000;52.056;8.510;2023-03-14T14:53:30;18.83;;;2.90;;
26277;SDS011;14000;52.056;8.510;2023-03-14T14:56:08;15.23;;;2.50;;
26277;SDS011;14000;52.056;8.510;2023-03-14T14:58:47;13.83;;;2.80;;
26277;SDS011;14000;52.056;8.510;2023-03-14T15:01:18;17.97;;;2.40;;
26277;SDS011;14000;52.056;8.510;2023-03-14T15:03:47;17.67;;;2.40;;
26277;SDS011;14000;52.056;8.510;2023-03-14T15:06:16;16.33;;;2.97;;
26277;SDS011;14000;52.056;8.510;2023-03-14T15:08:43;21.37;;;2.90;;
26277;SDS011;14000;52.056;8.510;2023-03-14T15:13:41;13.77;;;2.00;;
26277;SDS011;14000;52.056;8.510;2023-03-14T15:16:11;12.57;;;2.07;;
26277;SDS011;14000;52.056;8.510;2023-03-14T15:18:37;16.50;;;2.43;;
26277;SDS011;14000;52.056;8.510;2023-03-14T15:21:03;16.53;;;2.20;;
26277;SDS011;14000;52.056;8.510;2023-03-14T15:23:28;20.60;;;3.47;;
26277;SDS011;14000;52.056;8.510;2023-03-14T15:25:54;16.17;;;1.77;;
26277;SDS011;14000;52.056;8.510;2023-03-14T15:28:21;14.50;;;2.10;;
26277;SDS011;14000;52.056;8.510;2023-03-14T15:30:49;13.33;;;1.80;;
26277;SDS011;14000;52.056;8.510;2023-03-14T15:33:16;17.30;;;2.20;;
26277;SDS011;14000;52.056;8.510;2023-03-14T15:35:42;14.97;;;2.00;;
26277;SDS011;14000;52.056;8.510;2023-03-14T15:38:09;20.00;;;2.40;;
26277;SDS011;14000;52.056;8.510;2023-03-14T15:40:40;10.60;;;1.87;;
26277;SDS011;14000;52.056;8.510;2023-03-14T15:43:06;14.83;;;2.00;;
26277;SDS011;14000;52.056;8.510;2023-03-14T15:45:32;18.13;;;2.30;;
26277;SDS011;14000;52.056;8.510;2023-03-14T15:47:57;15.47;;;1.93;;
26277;SDS011;14000;52.056;8.510;2023-03-14T15:50:23;14.00;;;1.90;;
26277;SDS011;14000;52.056;8.510;2023-03-14T15:52:50;13.43;;;1.90;;
26277;SDS011;14000;52.056;8.510;2023-03-14T15:55:16;17.67;;;2.37;;
26277;SDS011;14000;52.056;8.510;2023-03-14T15:57:42;16.70;;;2.20;;
26277;SDS011;14000;52.056;8.510;2023-03-14T16:00:12;16.73;;;2.10;;
26277;SDS011;14000;52.056;8.510;2023-03-14T16:02:40;14.53;;;2.10;;
26277;SDS011;14000;52.056;8.510;2023-03-14T16:05:10;13.37;;;2.07;;